sensor_id;sensor_type;location;lat;lon;timestamp;temperature;humidity
67641;SHT31;54434;50.096;20.082;2023-05-24T00:02:31;16.81;80.18
67641;SHT31;54434;50.096;20.082;2023-05-24T00:05:09;16.80;80.36
67641;SHT31;54434;50.096;20.082;2023-05-24T00:07:47;16.78;80.48
67641;SHT31;54434;50.096;20.082;2023-05-24T00:10:23;16.77;80.65
67641;SHT31;54434;50.096;20.082;2023-05-24T00:13:00;16.76;80.94
67641;SHT31;54434;50.096;20.082;2023-05-24T00:15:37;16.75;81.06
67641;SHT31;54434;50.096;20.082;2023-05-24T00:18:13;16.73;81.31
67641;SHT31;54434;50.096;20.082;2023-05-24T00:20:49;16.73;81.32
67641;SHT31;54434;50.096;20.082;2023-05-24T00:23:28;16.73;81.18
67641;SHT31;54434;50.096;20.082;2023-05-24T00:26:04;16.75;81.23
67641;SHT31;54434;50.096;20.082;2023-05-24T00:28:43;16.74;81.41
67641;SHT31;54434;50.096;20.082;2023-05-24T00:31:21;16.73;81.75
67641;SHT31;54434;50.096;20.082;2023-05-24T00:33:58;16.71;81.82
67641;SHT31;54434;50.096;20.082;2023-05-24T00:36:34;16.70;82.22
67641;SHT31;54434;50.096;20.082;2023-05-24T00:39:12;16.68;82.33
67641;SHT31;54434;50.096;20.082;2023-05-24T00:41:49;16.66;82.46
67641;SHT31;54434;50.096;20.082;2023-05-24T00:44:25;16.65;82.52
67641;SHT31;54434;50.096;20.082;2023-05-24T00:47:03;16.65;82.67
67641;SHT31;54434;50.096;20.082;2023-05-24T00:49:39;16.62;82.88
67641;SHT31;54434;50.096;20.082;2023-05-24T00:52:16;16.62;82.79
67641;SHT31;54434;50.096;20.082;2023-05-24T00:54:53;16.60;82.85
67641;SHT31;54434;50.096;20.082;2023-05-24T00:57:30;16.59;83.01
67641;SHT31;54434;50.096;20.082;2023-05-24T01:00:09;16.58;83.08
67641;SHT31;54434;50.096;20.082;2023-05-24T01:02:47;16.56;83.13
67641;SHT31;54434;50.096;20.082;2023-05-24T01:05:24;16.52;83.20
67641;SHT31;54434;50.096;20.082;2023-05-24T01:08:03;16.50;83.18
67641;SHT31;54434;50.096;20.082;2023-05-24T01:10:57;16.49;83.16
67641;SHT31;54434;50.096;20.082;2023-05-24T01:13:47;16.47;83.23
67641;SHT31;54434;50.096;20.082;2023-05-24T01:16:38;16.44;83.37
67641;SHT31;54434;50.096;20.082;2023-05-24T01:19:48;16.41;83.44
67641;SHT31;54434;50.096;20.082;2023-05-24T01:22:58;16.39;83.40
67641;SHT31;54434;50.096;20.082;2023-05-24T01:29:04;16.36;83.40
67641;SHT31;54434;50.096;20.082;2023-05-24T01:31:42;16.34;83.43
67641;SHT31;54434;50.096;20.082;2023-05-24T01:34:21;16.33;83.36
67641;SHT31;54434;50.096;20.082;2023-05-24T01:37:00;16.33;83.44
67641;SHT31;54434;50.096;20.082;2023-05-24T01:39:37;16.32;83.52
67641;SHT31;54434;50.096;20.082;2023-05-24T01:42:23;16.30;83.55
67641;SHT31;54434;50.096;20.082;2023-05-24T01:45:07;16.29;83.44
67641;SHT31;54434;50.096;20.082;2023-05-24T01:48:01;16.28;83.44
67641;SHT31;54434;50.096;20.082;2023-05-24T01:50:53;16.27;83.51
67641;SHT31;54434;50.096;20.082;2023-05-24T01:53:34;16.27;83.47
67641;SHT31;54434;50.096;20.082;2023-05-24T01:56:19;16.24;83.52
67641;SHT31;54434;50.096;20.082;2023-05-24T01:58:59;16.23;83.55
67641;SHT31;54434;50.096;20.082;2023-05-24T02:01:38;16.22;83.58
67641;SHT31;54434;50.096;20.082;2023-05-24T02:04:15;16.22;83.52
67641;SHT31;54434;50.096;20.082;2023-05-24T02:06:52;16.21;83.50
67641;SHT31;54434;50.096;20.082;2023-05-24T02:09:28;16.20;83.59
67641;SHT31;54434;50.096;20.082;2023-05-24T02:12:06;16.20;83.58
67641;SHT31;54434;50.096;20.082;2023-05-24T02:14:44;16.19;83.70
67641;SHT31;54434;50.096;20.082;2023-05-24T02:17:21;16.18;83.65
67641;SHT31;54434;50.096;20.082;2023-05-24T02:19:58;16.17;83.69
67641;SHT31;54434;50.096;20.082;2023-05-24T02:22:35;16.17;83.67
67641;SHT31;54434;50.096;20.082;2023-05-24T02:25:12;16.16;83.68
67641;SHT31;54434;50.096;20.082;2023-05-24T02:27:49;16.15;83.70
67641;SHT31;54434;50.096;20.082;2023-05-24T02:30:26;16.15;83.70
67641;SHT31;54434;50.096;20.082;2023-05-24T02:33:02;16.15;83.72
67641;SHT31;54434;50.096;20.082;2023-05-24T02:35:39;16.13;83.88
67641;SHT31;54434;50.096;20.082;2023-05-24T02:38:16;16.13;84.09
67641;SHT31;54434;50.096;20.082;2023-05-24T02:40:53;16.11;84.07
67641;SHT31;54434;50.096;20.082;2023-05-24T02:43:29;16.10;84.28
67641;SHT31;54434;50.096;20.082;2023-05-24T02:46:06;16.09;84.26
67641;SHT31;54434;50.096;20.082;2023-05-24T02:48:42;16.09;84.30
67641;SHT31;54434;50.096;20.082;2023-05-24T02:51:20;16.10;84.25
67641;SHT31;54434;50.096;20.082;2023-05-24T02:53:57;16.11;84.19
67641;SHT31;54434;50.096;20.082;2023-05-24T02:56:33;16.12;84.23
67641;SHT31;54434;50.096;20.082;2023-05-24T02:59:10;16.12;84.28
67641;SHT31;54434;50.096;20.082;2023-05-24T03:01:47;16.11;84.39
67641;SHT31;54434;50.096;20.082;2023-05-24T03:04:24;16.11;84.35
67641;SHT31;54434;50.096;20.082;2023-05-24T03:07:00;16.12;84.35
67641;SHT31;54434;50.096;20.082;2023-05-24T03:09:37;16.12;84.38
67641;SHT31;54434;50.096;20.082;2023-05-24T03:12:14;16.14;84.30
67641;SHT31;54434;50.096;20.082;2023-05-24T03:14:50;16.16;84.29
67641;SHT31;54434;50.096;20.082;2023-05-24T03:17:27;16.17;84.23
67641;SHT31;54434;50.096;20.082;2023-05-24T03:20:05;16.18;84.20
67641;SHT31;54434;50.096;20.082;2023-05-24T03:22:43;16.18;84.22
67641;SHT31;54434;50.096;20.082;2023-05-24T03:25:20;16.19;84.11
67641;SHT31;54434;50.096;20.082;2023-05-24T03:27:58;16.23;84.06
67641;SHT31;54434;50.096;20.082;2023-05-24T03:30:35;16.24;83.98
67641;SHT31;54434;50.096;20.082;2023-05-24T03:33:12;16.26;83.92
67641;SHT31;54434;50.096;20.082;2023-05-24T03:35:49;16.27;83.90
67641;SHT31;54434;50.096;20.082;2023-05-24T03:38:27;16.27;83.87
67641;SHT31;54434;50.096;20.082;2023-05-24T03:41:04;16.28;83.90
67641;SHT31;54434;50.096;20.082;2023-05-24T03:43:41;16.29;83.92
67641;SHT31;54434;50.096;20.082;2023-05-24T03:46:20;16.28;84.02
67641;SHT31;54434;50.096;20.082;2023-05-24T03:48:58;16.30;83.92
67641;SHT31;54434;50.096;20.082;2023-05-24T03:51:34;16.32;83.80
67641;SHT31;54434;50.096;20.082;2023-05-24T03:54:11;16.33;83.73
67641;SHT31;54434;50.096;20.082;2023-05-24T03:56:48;16.34;83.71
67641;SHT31;54434;50.096;20.082;2023-05-24T03:59:25;16.36;83.64
67641;SHT31;54434;50.096;20.082;2023-05-24T04:02:02;16.37;83.55
67641;SHT31;54434;50.096;20.082;2023-05-24T04:04:39;16.40;83.42
67641;SHT31;54434;50.096;20.082;2023-05-24T04:07:17;16.41;83.30
67641;SHT31;54434;50.096;20.082;2023-05-24T04:09:55;16.42;83.10
67641;SHT31;54434;50.096;20.082;2023-05-24T04:12:31;16.43;83.00
67641;SHT31;54434;50.096;20.082;2023-05-24T04:15:11;16.45;82.91
67641;SHT31;54434;50.096;20.082;2023-05-24T04:17:47;16.48;82.82
67641;SHT31;54434;50.096;20.082;2023-05-24T04:20:26;16.47;82.81
67641;SHT31;54434;50.096;20.082;2023-05-24T04:23:03;16.46;82.66
67641;SHT31;54434;50.096;20.082;2023-05-24T04:25:40;16.48;82.48
67641;SHT31;54434;50.096;20.082;2023-05-24T04:28:17;16.49;82.41
67641;SHT31;54434;50.096;20.082;2023-05-24T04:30:55;16.51;82.39
67641;SHT31;54434;50.096;20.082;2023-05-24T04:33:32;16.51;82.33
67641;SHT31;54434;50.096;20.082;2023-05-24T04:36:10;16.53;82.26
67641;SHT31;54434;50.096;20.082;2023-05-24T04:38:48;16.53;82.14
67641;SHT31;54434;50.096;20.082;2023-05-24T04:41:27;16.54;81.78
67641;SHT31;54434;50.096;20.082;2023-05-24T04:44:04;16.53;81.58
67641;SHT31;54434;50.096;20.082;2023-05-24T04:46:40;16.55;81.49
67641;SHT31;54434;50.096;20.082;2023-05-24T04:49:17;16.55;81.44
67641;SHT31;54434;50.096;20.082;2023-05-24T04:51:53;16.55;81.40
67641;SHT31;54434;50.096;20.082;2023-05-24T04:54:30;16.54;81.28
67641;SHT31;54434;50.096;20.082;2023-05-24T04:57:07;16.53;81.29
67641;SHT31;54434;50.096;20.082;2023-05-24T04:59:43;16.51;81.28
67641;SHT31;54434;50.096;20.082;2023-05-24T05:02:20;16.51;81.22
67641;SHT31;54434;50.096;20.082;2023-05-24T05:04:58;16.51;81.24
67641;SHT31;54434;50.096;20.082;2023-05-24T05:07:34;16.52;81.13
67641;SHT31;54434;50.096;20.082;2023-05-24T05:10:11;16.53;81.01
67641;SHT31;54434;50.096;20.082;2023-05-24T05:12:49;16.50;80.90
67641;SHT31;54434;50.096;20.082;2023-05-24T05:15:26;16.51;80.87
67641;SHT31;54434;50.096;20.082;2023-05-24T05:18:03;16.50;80.58
67641;SHT31;54434;50.096;20.082;2023-05-24T05:20:40;16.49;80.34
67641;SHT31;54434;50.096;20.082;2023-05-24T05:23:17;16.49;80.24
67641;SHT31;54434;50.096;20.082;2023-05-24T05:25:54;16.49;80.18
67641;SHT31;54434;50.096;20.082;2023-05-24T05:28:30;16.49;80.12
67641;SHT31;54434;50.096;20.082;2023-05-24T05:31:07;16.48;80.02
67641;SHT31;54434;50.096;20.082;2023-05-24T05:33:43;16.44;79.96
67641;SHT31;54434;50.096;20.082;2023-05-24T05:36:20;16.44;80.03
67641;SHT31;54434;50.096;20.082;2023-05-24T05:38:56;16.46;80.06
67641;SHT31;54434;50.096;20.082;2023-05-24T05:41:33;16.47;80.09
67641;SHT31;54434;50.096;20.082;2023-05-24T05:44:16;16.50;80.02
67641;SHT31;54434;50.096;20.082;2023-05-24T05:46:54;16.51;79.99
67641;SHT31;54434;50.096;20.082;2023-05-24T05:49:30;16.54;79.88
67641;SHT31;54434;50.096;20.082;2023-05-24T05:52:07;16.55;79.72
67641;SHT31;54434;50.096;20.082;2023-05-24T05:54:44;16.56;79.86
67641;SHT31;54434;50.096;20.082;2023-05-24T05:57:20;16.61;79.96
67641;SHT31;54434;50.096;20.082;2023-05-24T05:59:57;16.66;79.76
67641;SHT31;54434;50.096;20.082;2023-05-24T06:02:42;16.72;79.74
67641;SHT31;54434;50.096;20.082;2023-05-24T06:05:19;16.79;79.71
67641;SHT31;54434;50.096;20.082;2023-05-24T06:07:56;16.86;79.47
67641;SHT31;54434;50.096;20.082;2023-05-24T06:10:32;16.95;79.40
67641;SHT31;54434;50.096;20.082;2023-05-24T06:13:09;17.10;79.40
67641;SHT31;54434;50.096;20.082;2023-05-24T06:15:45;17.17;79.03
67641;SHT31;54434;50.096;20.082;2023-05-24T06:18:23;17.27;79.00
67641;SHT31;54434;50.096;20.082;2023-05-24T06:21:01;17.34;78.31
67641;SHT31;54434;50.096;20.082;2023-05-24T06:23:41;17.42;78.40
67641;SHT31;54434;50.096;20.082;2023-05-24T06:26:17;17.56;78.32
67641;SHT31;54434;50.096;20.082;2023-05-24T06:28:55;17.68;78.03
67641;SHT31;54434;50.096;20.082;2023-05-24T06:31:31;17.77;77.30
67641;SHT31;54434;50.096;20.082;2023-05-24T06:34:08;17.80;76.87
67641;SHT31;54434;50.096;20.082;2023-05-24T06:36:47;17.79;76.71
67641;SHT31;54434;50.096;20.082;2023-05-24T06:39:24;17.83;76.62
67641;SHT31;54434;50.096;20.082;2023-05-24T06:42:00;17.83;76.52
67641;SHT31;54434;50.096;20.082;2023-05-24T06:44:40;17.85;76.42
67641;SHT31;54434;50.096;20.082;2023-05-24T06:47:16;17.88;76.50
67641;SHT31;54434;50.096;20.082;2023-05-24T06:49:53;17.90;76.06
67641;SHT31;54434;50.096;20.082;2023-05-24T06:52:29;17.88;76.07
67641;SHT31;54434;50.096;20.082;2023-05-24T06:55:07;17.91;76.24
67641;SHT31;54434;50.096;20.082;2023-05-24T06:57:43;17.97;75.99
67641;SHT31;54434;50.096;20.082;2023-05-24T07:00:21;17.95;75.93
67641;SHT31;54434;50.096;20.082;2023-05-24T07:02:58;17.98;75.97
67641;SHT31;54434;50.096;20.082;2023-05-24T07:05:35;17.99;75.92
67641;SHT31;54434;50.096;20.082;2023-05-24T07:08:12;17.92;75.50
67641;SHT31;54434;50.096;20.082;2023-05-24T07:10:48;17.84;75.50
67641;SHT31;54434;50.096;20.082;2023-05-24T07:13:25;17.81;75.67
67641;SHT31;54434;50.096;20.082;2023-05-24T07:16:03;17.80;75.87
67641;SHT31;54434;50.096;20.082;2023-05-24T07:18:40;17.79;76.20
67641;SHT31;54434;50.096;20.082;2023-05-24T07:21:17;17.81;76.16
67641;SHT31;54434;50.096;20.082;2023-05-24T07:23:53;17.81;76.00
67641;SHT31;54434;50.096;20.082;2023-05-24T07:26:30;17.80;75.94
67641;SHT31;54434;50.096;20.082;2023-05-24T07:29:06;17.80;75.72
67641;SHT31;54434;50.096;20.082;2023-05-24T07:31:43;17.78;75.79
67641;SHT31;54434;50.096;20.082;2023-05-24T07:34:20;17.76;75.86
67641;SHT31;54434;50.096;20.082;2023-05-24T07:36:59;17.77;75.72
67641;SHT31;54434;50.096;20.082;2023-05-24T07:39:36;17.73;75.68
67641;SHT31;54434;50.096;20.082;2023-05-24T07:42:13;17.71;75.78
67641;SHT31;54434;50.096;20.082;2023-05-24T07:44:50;17.70;75.80
67641;SHT31;54434;50.096;20.082;2023-05-24T07:47:26;17.69;75.67
67641;SHT31;54434;50.096;20.082;2023-05-24T07:50:03;17.67;75.69
67641;SHT31;54434;50.096;20.082;2023-05-24T07:52:42;17.67;75.97
67641;SHT31;54434;50.096;20.082;2023-05-24T07:55:19;17.70;76.03
67641;SHT31;54434;50.096;20.082;2023-05-24T07:57:55;17.68;75.77
67641;SHT31;54434;50.096;20.082;2023-05-24T08:00:32;17.66;75.94
67641;SHT31;54434;50.096;20.082;2023-05-24T08:03:08;17.68;76.31
67641;SHT31;54434;50.096;20.082;2023-05-24T08:05:46;17.70;76.54
67641;SHT31;54434;50.096;20.082;2023-05-24T08:08:23;17.70;76.68
67641;SHT31;54434;50.096;20.082;2023-05-24T08:11:00;17.71;76.79
67641;SHT31;54434;50.096;20.082;2023-05-24T08:13:36;17.73;76.97
67641;SHT31;54434;50.096;20.082;2023-05-24T08:16:13;17.73;77.18
67641;SHT31;54434;50.096;20.082;2023-05-24T08:18:50;17.73;77.11
67641;SHT31;54434;50.096;20.082;2023-05-24T08:21:26;17.69;77.39
67641;SHT31;54434;50.096;20.082;2023-05-24T08:24:04;17.65;77.31
67641;SHT31;54434;50.096;20.082;2023-05-24T08:26:41;17.64;77.28
67641;SHT31;54434;50.096;20.082;2023-05-24T08:29:17;17.62;77.55
67641;SHT31;54434;50.096;20.082;2023-05-24T08:31:54;17.59;77.94
67641;SHT31;54434;50.096;20.082;2023-05-24T08:34:31;17.57;78.14
67641;SHT31;54434;50.096;20.082;2023-05-24T08:37:08;17.47;78.32
67641;SHT31;54434;50.096;20.082;2023-05-24T08:39:50;17.31;78.27
67641;SHT31;54434;50.096;20.082;2023-05-24T08:42:26;17.21;78.55
67641;SHT31;54434;50.096;20.082;2023-05-24T08:45:06;17.14;78.71
67641;SHT31;54434;50.096;20.082;2023-05-24T08:47:45;17.07;78.74
67641;SHT31;54434;50.096;20.082;2023-05-24T08:50:24;17.00;78.75
67641;SHT31;54434;50.096;20.082;2023-05-24T08:53:02;16.87;78.86
67641;SHT31;54434;50.096;20.082;2023-05-24T08:55:41;16.74;79.16
67641;SHT31;54434;50.096;20.082;2023-05-24T08:58:19;16.69;79.42
67641;SHT31;54434;50.096;20.082;2023-05-24T09:00:56;16.69;79.41
67641;SHT31;54434;50.096;20.082;2023-05-24T09:03:34;16.69;79.53
67641;SHT31;54434;50.096;20.082;2023-05-24T09:06:13;16.76;79.80
67641;SHT31;54434;50.096;20.082;2023-05-24T09:08:51;16.88;79.73
67641;SHT31;54434;50.096;20.082;2023-05-24T09:11:30;17.00;79.49
67641;SHT31;54434;50.096;20.082;2023-05-24T09:14:10;17.07;79.31
67641;SHT31;54434;50.096;20.082;2023-05-24T09:16:47;17.11;79.22
67641;SHT31;54434;50.096;20.082;2023-05-24T09:19:23;17.21;79.01
67641;SHT31;54434;50.096;20.082;2023-05-24T09:22:00;17.31;78.74
67641;SHT31;54434;50.096;20.082;2023-05-24T09:24:42;17.40;78.85
67641;SHT31;54434;50.096;20.082;2023-05-24T09:27:21;17.44;78.40
67641;SHT31;54434;50.096;20.082;2023-05-24T09:29:57;17.56;78.33
67641;SHT31;54434;50.096;20.082;2023-05-24T09:32:35;17.73;78.00
67641;SHT31;54434;50.096;20.082;2023-05-24T09:35:13;17.87;77.75
67641;SHT31;54434;50.096;20.082;2023-05-24T09:37:49;18.02;77.43
67641;SHT31;54434;50.096;20.082;2023-05-24T09:40:30;18.09;76.78
67641;SHT31;54434;50.096;20.082;2023-05-24T09:43:08;18.12;76.72
67641;SHT31;54434;50.096;20.082;2023-05-24T09:45:45;18.23;76.68
67641;SHT31;54434;50.096;20.082;2023-05-24T09:48:22;18.20;75.51
67641;SHT31;54434;50.096;20.082;2023-05-24T09:51:02;18.17;75.59
67641;SHT31;54434;50.096;20.082;2023-05-24T09:53:40;18.11;75.36
67641;SHT31;54434;50.096;20.082;2023-05-24T09:56:21;18.09;75.21
67641;SHT31;54434;50.096;20.082;2023-05-24T09:58:58;17.98;75.00
67641;SHT31;54434;50.096;20.082;2023-05-24T10:01:41;17.84;75.18
67641;SHT31;54434;50.096;20.082;2023-05-24T10:04:18;17.75;75.47
67641;SHT31;54434;50.096;20.082;2023-05-24T10:07:07;17.70;75.76
67641;SHT31;54434;50.096;20.082;2023-05-24T10:09:44;17.63;75.95
67641;SHT31;54434;50.096;20.082;2023-05-24T10:12:22;17.58;75.91
67641;SHT31;54434;50.096;20.082;2023-05-24T10:15:00;17.54;76.10
67641;SHT31;54434;50.096;20.082;2023-05-24T10:17:38;17.49;76.17
67641;SHT31;54434;50.096;20.082;2023-05-24T10:20:16;17.43;76.30
67641;SHT31;54434;50.096;20.082;2023-05-24T10:22:57;17.34;76.54
67641;SHT31;54434;50.096;20.082;2023-05-24T10:25:40;17.23;76.78
67641;SHT31;54434;50.096;20.082;2023-05-24T10:28:27;17.08;77.07
67641;SHT31;54434;50.096;20.082;2023-05-24T10:31:09;16.91;77.26
67641;SHT31;54434;50.096;20.082;2023-05-24T10:33:48;16.82;77.60
67641;SHT31;54434;50.096;20.082;2023-05-24T10:36:38;16.77;77.90
67641;SHT31;54434;50.096;20.082;2023-05-24T10:39:16;16.77;78.02
67641;SHT31;54434;50.096;20.082;2023-05-24T10:41:58;16.80;77.96
67641;SHT31;54434;50.096;20.082;2023-05-24T10:44:40;16.83;77.94
67641;SHT31;54434;50.096;20.082;2023-05-24T10:47:19;16.90;78.07
67641;SHT31;54434;50.096;20.082;2023-05-24T10:50:00;16.97;78.04
67641;SHT31;54434;50.096;20.082;2023-05-24T10:52:52;17.07;78.07
67641;SHT31;54434;50.096;20.082;2023-05-24T10:55:54;17.20;77.66
67641;SHT31;54434;50.096;20.082;2023-05-24T10:58:58;17.29;77.19
67641;SHT31;54434;50.096;20.082;2023-05-24T11:01:36;17.24;76.72
67641;SHT31;54434;50.096;20.082;2023-05-24T11:04:17;17.14;76.54
67641;SHT31;54434;50.096;20.082;2023-05-24T11:06:57;17.04;76.63
67641;SHT31;54434;50.096;20.082;2023-05-24T11:09:39;16.99;76.88
67641;SHT31;54434;50.096;20.082;2023-05-24T11:12:24;16.97;76.76
67641;SHT31;54434;50.096;20.082;2023-05-24T11:15:10;16.96;76.48
67641;SHT31;54434;50.096;20.082;2023-05-24T11:18:16;16.92;76.63
67641;SHT31;54434;50.096;20.082;2023-05-24T11:20:57;16.76;76.49
67641;SHT31;54434;50.096;20.082;2023-05-24T11:23:35;16.65;76.57
67641;SHT31;54434;50.096;20.082;2023-05-24T11:26:12;16.57;76.60
67641;SHT31;54434;50.096;20.082;2023-05-24T11:28:50;16.51;76.59
67641;SHT31;54434;50.096;20.082;2023-05-24T11:31:28;16.46;76.81
67641;SHT31;54434;50.096;20.082;2023-05-24T11:34:11;16.37;76.94
67641;SHT31;54434;50.096;20.082;2023-05-24T11:36:47;16.35;77.04
67641;SHT31;54434;50.096;20.082;2023-05-24T11:39:29;16.35;77.22
67641;SHT31;54434;50.096;20.082;2023-05-24T11:42:08;16.27;77.09
67641;SHT31;54434;50.096;20.082;2023-05-24T11:44:46;16.19;77.14
67641;SHT31;54434;50.096;20.082;2023-05-24T11:47:25;16.15;77.27
67641;SHT31;54434;50.096;20.082;2023-05-24T11:50:02;16.16;77.35
67641;SHT31;54434;50.096;20.082;2023-05-24T11:52:40;16.21;77.58
67641;SHT31;54434;50.096;20.082;2023-05-24T11:55:24;16.25;77.40
67641;SHT31;54434;50.096;20.082;2023-05-24T11:58:01;16.27;77.29
67641;SHT31;54434;50.096;20.082;2023-05-24T12:00:49;16.29;77.31
67641;SHT31;54434;50.096;20.082;2023-05-24T12:03:26;16.32;77.22
67641;SHT31;54434;50.096;20.082;2023-05-24T12:06:04;16.35;77.14
67641;SHT31;54434;50.096;20.082;2023-05-24T12:08:41;16.33;77.28
67641;SHT31;54434;50.096;20.082;2023-05-24T12:11:19;16.33;77.33
67641;SHT31;54434;50.096;20.082;2023-05-24T12:13:57;16.30;76.79
67641;SHT31;54434;50.096;20.082;2023-05-24T12:16:36;16.27;76.77
67641;SHT31;54434;50.096;20.082;2023-05-24T12:19:20;16.27;76.47
67641;SHT31;54434;50.096;20.082;2023-05-24T12:22:02;16.28;76.58
67641;SHT31;54434;50.096;20.082;2023-05-24T12:24:40;16.35;76.39
67641;SHT31;54434;50.096;20.082;2023-05-24T12:27:16;16.44;76.20
67641;SHT31;54434;50.096;20.082;2023-05-24T12:29:57;16.57;76.00
67641;SHT31;54434;50.096;20.082;2023-05-24T12:32:50;16.69;75.56
67641;SHT31;54434;50.096;20.082;2023-05-24T12:35:27;16.80;75.40
67641;SHT31;54434;50.096;20.082;2023-05-24T12:38:07;16.97;75.47
67641;SHT31;54434;50.096;20.082;2023-05-24T12:40:44;17.12;74.81
67641;SHT31;54434;50.096;20.082;2023-05-24T12:43:42;17.26;74.31
67641;SHT31;54434;50.096;20.082;2023-05-24T12:46:18;17.41;74.16
67641;SHT31;54434;50.096;20.082;2023-05-24T12:48:55;17.58;74.32
67641;SHT31;54434;50.096;20.082;2023-05-24T12:51:35;17.74;73.86
67641;SHT31;54434;50.096;20.082;2023-05-24T12:54:12;17.82;73.08
67641;SHT31;54434;50.096;20.082;2023-05-24T12:56:50;17.85;72.56
67641;SHT31;54434;50.096;20.082;2023-05-24T12:59:28;17.81;72.12
67641;SHT31;54434;50.096;20.082;2023-05-24T13:02:07;17.80;72.04
67641;SHT31;54434;50.096;20.082;2023-05-24T13:04:44;17.85;71.87
67641;SHT31;54434;50.096;20.082;2023-05-24T13:07:22;17.87;71.64
67641;SHT31;54434;50.096;20.082;2023-05-24T13:09:59;17.90;71.56
67641;SHT31;54434;50.096;20.082;2023-05-24T13:12:37;17.86;71.22
67641;SHT31;54434;50.096;20.082;2023-05-24T13:15:14;17.86;71.66
67641;SHT31;54434;50.096;20.082;2023-05-24T13:17:53;17.92;71.60
67641;SHT31;54434;50.096;20.082;2023-05-24T13:20:30;17.92;71.12
67641;SHT31;54434;50.096;20.082;2023-05-24T13:23:07;17.93;70.79
67641;SHT31;54434;50.096;20.082;2023-05-24T13:25:44;17.94;70.70
67641;SHT31;54434;50.096;20.082;2023-05-24T13:28:21;18.00;70.93
67641;SHT31;54434;50.096;20.082;2023-05-24T13:30:58;18.11;71.10
67641;SHT31;54434;50.096;20.082;2023-05-24T13:33:35;18.14;70.25
67641;SHT31;54434;50.096;20.082;2023-05-24T13:36:12;18.17;70.31
67641;SHT31;54434;50.096;20.082;2023-05-24T13:38:49;18.24;70.17
67641;SHT31;54434;50.096;20.082;2023-05-24T13:41:45;18.37;70.14
67641;SHT31;54434;50.096;20.082;2023-05-24T13:44:21;18.47;69.90
67641;SHT31;54434;50.096;20.082;2023-05-24T13:46:58;18.51;69.47
67641;SHT31;54434;50.096;20.082;2023-05-24T13:49:35;18.54;69.56
67641;SHT31;54434;50.096;20.082;2023-05-24T13:52:12;18.58;69.16
67641;SHT31;54434;50.096;20.082;2023-05-24T13:54:48;18.59;68.95
67641;SHT31;54434;50.096;20.082;2023-05-24T13:57:25;18.59;68.84
67641;SHT31;54434;50.096;20.082;2023-05-24T14:00:22;18.61;68.98
67641;SHT31;54434;50.096;20.082;2023-05-24T14:02:59;18.59;68.96
67641;SHT31;54434;50.096;20.082;2023-05-24T14:05:37;18.55;68.18
67641;SHT31;54434;50.096;20.082;2023-05-24T14:08:14;18.42;68.15
67641;SHT31;54434;50.096;20.082;2023-05-24T14:10:51;18.30;68.01
67641;SHT31;54434;50.096;20.082;2023-05-24T14:13:28;18.13;68.45
67641;SHT31;54434;50.096;20.082;2023-05-24T14:16:08;18.04;68.38
67641;SHT31;54434;50.096;20.082;2023-05-24T14:18:45;17.96;68.68
67641;SHT31;54434;50.096;20.082;2023-05-24T14:21:22;17.91;68.96
67641;SHT31;54434;50.096;20.082;2023-05-24T14:23:59;17.77;68.80
67641;SHT31;54434;50.096;20.082;2023-05-24T14:26:36;17.64;68.87
67641;SHT31;54434;50.096;20.082;2023-05-24T14:29:13;17.51;69.17
67641;SHT31;54434;50.096;20.082;2023-05-24T14:31:49;17.48;69.13
67641;SHT31;54434;50.096;20.082;2023-05-24T14:34:26;17.45;69.20
67641;SHT31;54434;50.096;20.082;2023-05-24T14:37:03;17.40;69.37
67641;SHT31;54434;50.096;20.082;2023-05-24T14:39:40;17.33;69.29
67641;SHT31;54434;50.096;20.082;2023-05-24T14:42:16;17.30;69.60
67641;SHT31;54434;50.096;20.082;2023-05-24T14:44:53;17.32;69.88
67641;SHT31;54434;50.096;20.082;2023-05-24T14:47:29;17.34;70.42
67641;SHT31;54434;50.096;20.082;2023-05-24T14:50:07;17.33;70.14
67641;SHT31;54434;50.096;20.082;2023-05-24T14:52:44;17.33;70.27
67641;SHT31;54434;50.096;20.082;2023-05-24T14:55:22;17.33;70.37
67641;SHT31;54434;50.096;20.082;2023-05-24T14:57:59;17.33;70.47
67641;SHT31;54434;50.096;20.082;2023-05-24T15:00:36;17.32;70.43
67641;SHT31;54434;50.096;20.082;2023-05-24T15:03:15;17.28;70.51
67641;SHT31;54434;50.096;20.082;2023-05-24T15:05:51;17.25;70.70
67641;SHT31;54434;50.096;20.082;2023-05-24T15:08:28;17.24;70.64
67641;SHT31;54434;50.096;20.082;2023-05-24T15:11:05;17.22;70.68
67641;SHT31;54434;50.096;20.082;2023-05-24T15:13:42;17.20;70.72
67641;SHT31;54434;50.096;20.082;2023-05-24T15:16:18;17.18;70.72
67641;SHT31;54434;50.096;20.082;2023-05-24T15:18:54;17.12;70.55
67641;SHT31;54434;50.096;20.082;2023-05-24T15:21:31;17.00;70.38
67641;SHT31;54434;50.096;20.082;2023-05-24T15:24:09;16.88;70.53
67641;SHT31;54434;50.096;20.082;2023-05-24T15:26:45;16.82;70.75
67641;SHT31;54434;50.096;20.082;2023-05-24T15:29:22;16.75;70.97
67641;SHT31;54434;50.096;20.082;2023-05-24T15:31:58;16.70;70.86
67641;SHT31;54434;50.096;20.082;2023-05-24T15:34:35;16.68;71.17
67641;SHT31;54434;50.096;20.082;2023-05-24T15:37:11;16.64;71.47
67641;SHT31;54434;50.096;20.082;2023-05-24T15:39:50;16.64;71.75
67641;SHT31;54434;50.096;20.082;2023-05-24T15:42:27;16.64;71.56
67641;SHT31;54434;50.096;20.082;2023-05-24T15:45:05;16.63;71.73
67641;SHT31;54434;50.096;20.082;2023-05-24T15:47:44;16.62;71.64
67641;SHT31;54434;50.096;20.082;2023-05-24T15:50:20;16.61;71.77
67641;SHT31;54434;50.096;20.082;2023-05-24T15:53:17;16.59;71.79
67641;SHT31;54434;50.096;20.082;2023-05-24T15:55:56;16.53;71.79
67641;SHT31;54434;50.096;20.082;2023-05-24T15:58:32;16.51;71.85
67641;SHT31;54434;50.096;20.082;2023-05-24T16:01:09;16.49;71.82
67641;SHT31;54434;50.096;20.082;2023-05-24T16:03:46;16.46;71.83
67641;SHT31;54434;50.096;20.082;2023-05-24T16:06:23;16.43;72.02
67641;SHT31;54434;50.096;20.082;2023-05-24T16:08:59;16.41;72.33
67641;SHT31;54434;50.096;20.082;2023-05-24T16:11:37;16.42;72.37
67641;SHT31;54434;50.096;20.082;2023-05-24T16:14:14;16.41;72.36
67641;SHT31;54434;50.096;20.082;2023-05-24T16:16:51;16.43;72.43
67641;SHT31;54434;50.096;20.082;2023-05-24T16:19:33;16.42;72.30
67641;SHT31;54434;50.096;20.082;2023-05-24T16:22:11;16.41;72.31
67641;SHT31;54434;50.096;20.082;2023-05-24T16:24:48;16.40;72.31
67641;SHT31;54434;50.096;20.082;2023-05-24T16:27:25;16.39;72.38
67641;SHT31;54434;50.096;20.082;2023-05-24T16:30:02;16.38;72.35